Time;durP1;ratioP1;P1;durP2;ratioP2;P2;SDS_P1;SDS_P2;PMS_P1;PMS_P2;Temp;Humidity;BMP_temperature;BMP_pressure;BME280_temperature;BME280_humidity;BME280_pressure;Samples;Min_cycle;Max_cycle;Signal;HPM_P1;HPM_P2
2022/06/28 00:01:57;;;;;;;12.77;2.08;;;10.70;99.90;;;;;;4944752;29;20287;-88
2022/06/28 00:04:23;;;;;;;13.65;3.63;;;10.60;99.90;;;;;;4950666;29;20035;-86
2022/06/28 00:06:48;;;;;;;8.80;1.90;;;10.60;99.90;;;;;;4947097;29;20388;-88
2022/06/28 00:09:14;;;;;;;10.40;1.45;;;10.60;99.90;;;;;;4951194;28;20054;-87
2022/06/28 00:11:43;;;;;;;11.02;1.33;;;10.60;99.90;;;;;;4951714;28;20078;-87
2022/06/28 00:16:56;;;;;;;8.07;1.88;;;10.60;99.90;;;;;;4948471;28;20062;-88
2022/06/28 00:19:22;;;;;;;11.50;1.63;;;10.60;99.90;;;;;;4946081;28;20204;-87
2022/06/28 00:21:49;;;;;;;9.70;1.58;;;10.60;99.90;;;;;;4930082;29;20186;-88
2022/06/28 00:24:15;;;;;;;8.52;1.23;;;10.60;99.90;;;;;;4931013;29;20047;-88
2022/06/28 00:26:41;;;;;;;8.80;1.55;;;10.60;99.90;;;;;;4940423;28;20151;-88
2022/06/28 00:29:07;;;;;;;12.82;1.70;;;10.50;99.90;;;;;;4934480;28;20206;-88
2022/06/28 00:31:33;;;;;;;6.97;1.67;;;10.50;99.90;;;;;;4947553;28;20134;-87
2022/06/28 00:33:59;;;;;;;10.68;1.58;;;10.50;99.90;;;;;;4945614;28;20043;-88
2022/06/28 00:36:25;;;;;;;11.38;1.90;;;10.40;99.90;;;;;;4946904;29;20043;-88
2022/06/28 00:38:52;;;;;;;10.77;1.98;;;10.40;99.90;;;;;;4946162;28;20114;-89
2022/06/28 00:41:19;;;;;;;8.48;1.35;;;10.40;99.90;;;;;;4947434;29;20031;-87
2022/06/28 00:43:45;;;;;;;9.35;2.63;;;10.40;99.90;;;;;;4946864;28;20046;-88
2022/06/28 00:46:11;;;;;;;8.50;2.42;;;10.30;99.90;;;;;;4944596;29;20035;-88
2022/06/28 00:48:38;;;;;;;14.85;3.60;;;10.30;99.90;;;;;;4946938;28;20034;-88
2022/06/28 00:51:04;;;;;;;17.63;3.35;;;10.20;99.90;;;;;;4938665;28;20145;-89
2022/06/28 00:53:30;;;;;;;12.00;4.95;;;10.20;99.90;;;;;;4947153;28;20035;-88
2022/06/28 00:55:56;;;;;;;11.27;3.00;;;10.20;99.90;;;;;;4954184;28;20019;-87
2022/06/28 00:58:21;;;;;;;12.57;3.28;;;10.10;99.90;;;;;;4946554;29;20332;-88
2022/06/28 01:00:48;;;;;;;11.77;2.90;;;10.10;99.90;;;;;;4946000;29;20046;-87
2022/06/28 01:03:17;;;;;;;11.93;2.35;;;10.10;99.90;;;;;;4943647;29;20113;-88
2022/06/28 01:05:43;;;;;;;18.00;2.35;;;10.10;99.90;;;;;;4945403;28;20054;-88
2022/06/28 01:08:10;;;;;;;10.23;1.92;;;10.10;99.90;;;;;;4947929;28;20058;-87
2022/06/28 01:10:37;;;;;;;11.48;2.13;;;10.20;99.90;;;;;;4961760;28;20101;-88
2022/06/28 01:13:03;;;;;;;11.90;1.98;;;10.30;99.90;;;;;;4947555;28;20067;-88
2022/06/28 01:15:30;;;;;;;11.70;1.60;;;10.30;99.90;;;;;;4947928;28;20031;-88
2022/06/28 01:17:57;;;;;;;10.02;1.80;;;10.40;99.90;;;;;;4929811;28;20568;-88
2022/06/28 01:20:23;;;;;;;10.63;1.75;;;10.40;99.90;;;;;;4928919;29;20114;-88
2022/06/28 01:22:49;;;;;;;14.32;2.30;;;10.40;99.90;;;;;;4945169;29;20110;-88
2022/06/28 01:25:14;;;;;;;13.50;1.63;;;10.40;99.90;;;;;;4946513;29;20356;-88
2022/06/28 01:27:40;;;;;;;16.00;1.92;;;10.40;99.90;;;;;;4946094;29;20478;-88
2022/06/28 01:30:08;;;;;;;7.35;1.58;;;10.30;99.90;;;;;;4946520;28;20436;-87
2022/06/28 01:32:34;;;;;;;11.52;1.70;;;10.30;99.90;;;;;;4946158;28;20146;-88
2022/06/28 01:35:01;;;;;;;11.38;2.78;;;10.20;99.90;;;;;;4945063;28;20073;-88
2022/06/28 01:37:27;;;;;;;9.82;1.42;;;10.20;99.90;;;;;;4944676;28;20039;-88
2022/06/28 01:39:53;;;;;;;11.75;2.10;;;10.20;99.90;;;;;;4944943;29;20031;-88
2022/06/28 01:42:19;;;;;;;10.60;2.17;;;10.20;99.90;;;;;;4944678;28;20078;-88
2022/06/28 01:44:46;;;;;;;12.52;2.05;;;10.20;99.90;;;;;;4947401;28;20399;-88
2022/06/28 01:47:13;;;;;;;11.50;2.42;;;10.10;99.90;;;;;;4945770;29;20402;-87
2022/06/28 01:49:39;;;;;;;9.93;3.83;;;10.10;99.90;;;;;;4941440;28;20122;-87
2022/06/28 01:52:05;;;;;;;13.93;4.57;;;10.10;99.90;;;;;;4942988;28;20130;-88
2022/06/28 01:54:31;;;;;;;13.35;4.25;;;10.00;99.90;;;;;;4934418;29;20191;-87
2022/06/28 01:56:56;;;;;;;18.75;4.82;;;9.90;99.90;;;;;;4936065;29;20158;-87
2022/06/28 01:59:23;;;;;;;13.50;3.35;;;9.90;99.90;;;;;;4928357;29;20036;-88
2022/06/28 02:01:49;;;;;;;14.70;3.13;;;9.80;99.90;;;;;;4933124;29;20046;-88
2022/06/28 02:04:20;;;;;;;13.88;6.22;;;9.80;99.90;;;;;;4940229;28;20794;-86
2022/06/28 02:06:46;;;;;;;9.20;2.90;;;9.80;99.90;;;;;;4936604;29;20057;-87
2022/06/28 02:09:12;;;;;;;8.23;3.38;;;9.80;99.90;;;;;;4948562;28;20368;-87
2022/06/28 02:11:37;;;;;;;15.85;2.90;;;9.80;99.90;;;;;;4948371;28;20499;-88
2022/06/28 02:14:03;;;;;;;15.05;2.47;;;9.80;99.90;;;;;;4947765;28;20027;-87
2022/06/28 02:16:29;;;;;;;14.73;2.58;;;9.80;99.90;;;;;;4956221;23;20478;-76
2022/06/28 02:18:54;;;;;;;12.27;2.05;;;9.80;99.90;;;;;;4941692;28;20117;-76
2022/06/28 02:21:20;;;;;;;8.38;2.72;;;9.80;99.90;;;;;;4939931;29;20098;-74
2022/06/28 02:23:46;;;;;;;14.77;4.07;;;9.70;99.90;;;;;;4943218;29;20043;-75
2022/06/28 02:26:13;;;;;;;11.93;2.92;;;9.60;99.90;;;;;;4942884;28;20031;-75
2022/06/28 02:28:40;;;;;;;13.15;2.72;;;9.50;99.90;;;;;;4930070;28;20043;-75
2022/06/28 02:31:23;;;;;;;8.02;2.20;;;9.50;99.90;;;;;;4941588;28;20067;-74
2022/06/28 02:33:49;;;;;;;10.13;1.73;;;9.50;99.90;;;;;;4942622;29;20023;-75
2022/06/28 02:41:43;;;;;;;11.93;2.22;;;9.50;99.90;;;;;;4942353;29;20070;-75
2022/06/28 02:44:10;;;;;;;11.55;1.75;;;9.50;99.90;;;;;;4942064;29;20156;-76
2022/06/28 02:46:36;;;;;;;6.57;2.33;;;9.50;99.90;;;;;;4942100;29;20119;-74
2022/06/28 02:49:04;;;;;;;11.98;2.33;;;9.50;99.90;;;;;;4942349;29;20116;-75
2022/06/28 02:51:30;;;;;;;5.53;1.75;;;9.50;99.90;;;;;;4942245;29;20040;-74
2022/06/28 02:53:55;;;;;;;7.03;2.08;;;9.50;99.90;;;;;;4941625;29;20117;-75
2022/06/28 02:56:22;;;;;;;11.95;2.38;;;9.50;99.90;;;;;;4941590;28;20078;-75
2022/06/28 02:58:48;;;;;;;7.95;1.80;;;9.50;99.90;;;;;;4943059;29;20047;-75
2022/06/28 03:01:14;;;;;;;4.32;1.38;;;9.50;99.90;;;;;;4934778;28;20043;-75
2022/06/28 03:03:40;;;;;;;11.00;2.40;;;9.40;99.90;;;;;;4942248;28;20062;-75
2022/06/28 03:06:06;;;;;;;11.75;2.88;;;9.40;99.90;;;;;;4928519;29;20030;-75
2022/06/28 03:08:32;;;;;;;11.38;2.03;;;9.30;99.90;;;;;;4942081;28;20027;-75
2022/06/28 03:10:58;;;;;;;9.65;1.80;;;9.30;99.90;;;;;;4939803;29;20085;-75
2022/06/28 03:13:24;;;;;;;8.98;1.88;;;9.20;99.90;;;;;;4940321;29;20086;-75
2022/06/28 03:15:50;;;;;;;11.13;2.35;;;9.20;99.90;;;;;;4926182;29;20036;-74
2022/06/28 03:18:16;;;;;;;6.18;2.03;;;9.20;99.90;;;;;;4937541;29;20071;-75
2022/06/28 03:20:42;;;;;;;8.13;1.95;;;9.20;99.90;;;;;;4940535;29;20089;-76
2022/06/28 03:23:07;;;;;;;7.88;2.70;;;9.20;99.90;;;;;;4941066;29;20047;-75
2022/06/28 03:25:33;;;;;;;6.28;1.58;;;9.20;99.90;;;;;;4939347;29;20079;-75
2022/06/28 03:27:59;;;;;;;5.60;2.05;;;9.20;99.90;;;;;;4940020;28;20453;-75
2022/06/28 03:30:25;;;;;;;7.07;1.77;;;9.20;99.90;;;;;;4937339;28;20075;-75
2022/06/28 03:32:50;;;;;;;8.23;1.65;;;9.10;99.90;;;;;;4944240;29;20180;-75
2022/06/28 03:35:16;;;;;;;7.28;1.48;;;9.10;99.90;;;;;;4935055;29;20093;-75
2022/06/28 03:37:42;;;;;;;7.50;1.55;;;9.10;99.90;;;;;;4944173;28;20035;-75
2022/06/28 03:40:09;;;;;;;5.30;1.50;;;9.10;99.90;;;;;;4943911;28;20113;-74
2022/06/28 03:42:36;;;;;;;7.70;2.13;;;9.10;99.90;;;;;;4944484;28;20491;-75
2022/06/28 03:45:02;;;;;;;9.30;1.90;;;9.10;99.90;;;;;;4944064;29;20102;-75
2022/06/28 03:47:28;;;;;;;5.70;1.52;;;9.10;99.90;;;;;;4944863;28;20387;-75
2022/06/28 03:49:54;;;;;;;4.78;1.40;;;9.10;99.90;;;;;;4931676;28;20036;-75
2022/06/28 03:52:28;;;;;;;11.30;2.50;;;9.00;99.90;;;;;;4941182;29;20107;-75
2022/06/28 03:54:57;;;;;;;7.88;1.75;;;9.00;99.90;;;;;;4939426;29;20044;-74
2022/06/28 03:57:24;;;;;;;7.20;1.45;;;8.90;99.90;;;;;;4944500;28;20035;-75
2022/06/28 03:59:50;;;;;;;8.57;1.98;;;8.90;99.90;;;;;;4933455;29;20024;-75
2022/06/28 04:02:16;;;;;;;5.20;1.45;;;8.90;99.90;;;;;;4944843;29;20047;-75
2022/06/28 04:04:42;;;;;;;9.18;1.70;;;8.90;99.90;;;;;;4937978;29;20881;-75
2022/06/28 04:07:07;;;;;;;6.20;1.80;;;8.80;99.90;;;;;;4942176;29;20065;-75
2022/06/28 04:09:33;;;;;;;8.30;1.92;;;8.80;99.90;;;;;;4943527;29;20035;-75
2022/06/28 04:11:59;;;;;;;5.97;1.60;;;8.80;99.90;;;;;;4944127;29;20501;-75
2022/06/28 04:14:24;;;;;;;7.15;1.80;;;8.80;99.90;;;;;;4945244;29;20028;-75
2022/06/28 04:16:50;;;;;;;12.00;3.78;;;8.80;99.90;;;;;;4933364;29;20114;-76
2022/06/28 04:19:16;;;;;;;7.95;1.90;;;8.80;99.90;;;;;;4937246;29;20035;-74
2022/06/28 04:21:42;;;;;;;6.90;1.70;;;8.80;99.90;;;;;;4945497;29;20422;-75
2022/06/28 04:24:07;;;;;;;7.10;1.45;;;8.80;99.90;;;;;;4945225;29;20174;-75
2022/06/28 04:26:33;;;;;;;8.63;2.03;;;8.80;99.90;;;;;;4942821;29;20058;-75
2022/06/28 04:28:59;;;;;;;6.30;1.73;;;8.80;99.90;;;;;;4945099;28;20047;-76
2022/06/28 04:31:24;;;;;;;7.25;1.98;;;8.80;99.90;;;;;;4944900;28;20028;-75
2022/06/28 04:33:50;;;;;;;6.40;1.80;;;8.80;99.90;;;;;;4935273;28;20090;-75
2022/06/28 04:36:16;;;;;;;4.57;1.60;;;8.80;99.90;;;;;;4943577;29;20089;-75
2022/06/28 04:38:42;;;;;;;8.10;1.63;;;8.90;99.90;;;;;;4944909;28;20130;-74
2022/06/28 04:41:08;;;;;;;10.25;2.30;;;8.90;99.90;;;;;;4942956;28;20035;-75
2022/06/28 04:43:34;;;;;;;4.05;1.63;;;9.00;99.90;;;;;;4943913;29;20083;-74
2022/06/28 04:45:59;;;;;;;8.63;1.85;;;9.00;99.90;;;;;;4936364;28;20706;-75
2022/06/28 04:48:25;;;;;;;5.50;1.75;;;9.00;99.90;;;;;;4932483;29;20090;-75
2022/06/28 04:50:51;;;;;;;7.18;2.05;;;9.10;99.90;;;;;;4938787;29;20027;-75
2022/06/28 04:53:16;;;;;;;10.00;2.28;;;9.20;99.90;;;;;;4943152;29;20486;-75
2022/06/28 04:55:42;;;;;;;5.82;1.77;;;9.20;99.90;;;;;;4942086;29;20373;-75
2022/06/28 04:58:08;;;;;;;6.82;2.03;;;9.30;99.90;;;;;;4937040;29;20042;-74
2022/06/28 05:00:34;;;;;;;7.60;1.90;;;9.40;99.90;;;;;;4938351;29;20066;-75
2022/06/28 05:02:59;;;;;;;8.40;2.28;;;9.40;99.90;;;;;;4941429;28;20046;-74
2022/06/28 05:05:25;;;;;;;7.68;1.80;;;9.50;99.90;;;;;;4941606;29;20039;-74
2022/06/28 05:07:51;;;;;;;4.18;1.73;;;9.60;99.90;;;;;;4941007;29;20027;-75
2022/06/28 05:10:16;;;;;;;9.52;2.20;;;9.70;99.90;;;;;;4937007;29;20129;-75
2022/06/28 05:12:42;;;;;;;7.35;2.10;;;9.70;99.90;;;;;;4944466;28;20486;-74
2022/06/28 05:15:08;;;;;;;6.80;2.40;;;9.70;99.90;;;;;;4941619;29;20090;-74
2022/06/28 05:17:34;;;;;;;12.10;2.42;;;9.80;99.90;;;;;;4940102;28;20057;-75
2022/06/28 05:20:00;;;;;;;5.28;2.15;;;9.80;99.90;;;;;;4939770;29;20035;-75
2022/06/28 05:22:25;;;;;;;10.93;2.90;;;9.90;99.90;;;;;;4926625;29;20083;-75
2022/06/28 05:24:53;;;;;;;7.72;3.35;;;10.00;99.90;;;;;;4926857;29;20058;-75
2022/06/28 05:27:19;;;;;;;11.60;2.90;;;10.00;99.90;;;;;;4942660;28;20035;-75
2022/06/28 05:29:44;;;;;;;8.40;2.60;;;10.10;99.90;;;;;;4942394;29;20058;-75
2022/06/28 05:32:10;;;;;;;12.98;2.72;;;10.30;99.90;;;;;;4937549;29;20072;-75
2022/06/28 05:34:35;;;;;;;13.02;2.60;;;10.40;99.90;;;;;;4937728;29;20118;-74
2022/06/28 05:37:01;;;;;;;7.60;2.30;;;10.50;99.90;;;;;;4942127;29;20116;-75
2022/06/28 05:39:27;;;;;;;8.25;2.60;;;10.60;99.90;;;;;;4941788;29;20404;-75
2022/06/28 05:41:52;;;;;;;8.63;2.70;;;10.70;99.90;;;;;;4944390;29;20038;-76
2022/06/28 05:44:18;;;;;;;9.27;2.55;;;10.80;99.90;;;;;;4933461;28;20118;-75
2022/06/28 05:46:44;;;;;;;11.00;2.65;;;10.90;99.90;;;;;;4934161;28;20036;-76
2022/06/28 05:49:10;;;;;;;6.70;1.95;;;11.00;99.90;;;;;;4938976;29;20054;-76
2022/06/28 05:51:36;;;;;;;12.20;2.25;;;11.10;99.90;;;;;;4943089;28;20450;-76
2022/06/28 05:54:02;;;;;;;8.85;2.85;;;11.20;99.90;;;;;;4938708;28;20118;-76
2022/06/28 05:56:29;;;;;;;11.32;2.17;;;11.40;99.90;;;;;;4943063;29;20144;-76
2022/06/28 05:58:55;;;;;;;12.23;2.35;;;11.50;99.90;;;;;;4942932;29;20605;-76
2022/06/28 06:01:22;;;;;;;13.48;2.67;;;11.70;99.90;;;;;;4940075;29;20634;-76
2022/06/28 06:03:48;;;;;;;4.57;1.48;;;11.90;99.90;;;;;;4941286;29;20051;-76
2022/06/28 06:06:14;;;;;;;10.82;1.63;;;12.00;99.90;;;;;;4939599;29;20038;-77
2022/06/28 06:08:40;;;;;;;9.95;2.70;;;12.20;99.90;;;;;;4942830;28;20122;-77
2022/06/28 06:11:09;;;;;;;13.27;2.20;;;12.40;99.90;;;;;;4935175;28;20901;-76
2022/06/28 06:13:35;;;;;;;13.40;1.90;;;12.60;99.90;;;;;;4939065;29;20039;-76
2022/06/28 06:16:01;;;;;;;6.78;1.63;;;12.80;99.90;;;;;;4939540;28;20036;-76
2022/06/28 06:18:27;;;;;;;3.67;1.10;;;12.90;99.90;;;;;;4930879;29;20748;-76
2022/06/28 06:20:52;;;;;;;4.82;1.17;;;13.10;99.90;;;;;;4934775;28;20028;-74
2022/06/28 06:23:18;;;;;;;7.15;1.75;;;13.20;99.90;;;;;;4939225;29;20161;-75
2022/06/28 06:25:44;;;;;;;8.05;1.30;;;13.30;99.90;;;;;;4933982;28;20082;-77
2022/06/28 06:28:09;;;;;;;10.50;1.20;;;13.60;99.90;;;;;;4943120;28;20034;-76
2022/06/28 06:30:36;;;;;;;7.95;0.93;;;13.90;99.90;;;;;;4935208;28;20039;-76
2022/06/28 06:33:02;;;;;;;13.95;2.17;;;14.20;99.90;;;;;;4937383;29;20102;-75
2022/06/28 06:35:28;;;;;;;6.50;0.80;;;14.50;99.90;;;;;;4939927;29;20126;-76
2022/06/28 06:38:00;;;;;;;5.40;0.90;;;14.80;99.90;;;;;;4937769;29;20035;-76
2022/06/28 06:40:27;;;;;;;4.22;0.75;;;15.00;99.90;;;;;;4935264;29;20122;-76
2022/06/28 06:42:52;;;;;;;5.25;0.95;;;15.30;99.90;;;;;;4938449;29;20759;-76
2022/06/28 06:45:18;;;;;;;8.55;1.30;;;15.70;99.90;;;;;;4933095;29;20036;-76
2022/06/28 06:47:44;;;;;;;6.68;0.90;;;15.90;99.90;;;;;;4927437;29;20125;-76
2022/06/28 06:50:09;;;;;;;6.45;0.70;;;16.30;99.90;;;;;;4932744;29;20123;-76
2022/06/28 06:52:36;;;;;;;8.80;0.77;;;16.40;99.90;;;;;;4941116;28;20031;-76
2022/06/28 06:55:03;;;;;;;3.90;1.30;;;16.40;99.90;;;;;;4937094;28;20098;-76
2022/06/28 06:57:29;;;;;;;5.88;1.10;;;16.50;99.90;;;;;;4937965;29;20050;-77
2022/06/28 06:59:55;;;;;;;8.70;1.15;;;16.40;99.90;;;;;;4256843;28;10000707;-76
2022/06/28 07:02:21;;;;;;;6.60;0.80;;;16.50;99.90;;;;;;4951169;28;20150;-76
2022/06/28 07:04:47;;;;;;;7.15;0.90;;;16.50;99.90;;;;;;4931782;29;20050;-76
2022/06/28 07:07:12;;;;;;;6.78;0.85;;;16.60;99.90;;;;;;4926015;28;20153;-76
2022/06/28 07:09:38;;;;;;;4.00;0.75;;;16.70;99.90;;;;;;4928971;29;20030;-75
2022/06/28 07:12:05;;;;;;;12.18;0.73;;;16.90;99.90;;;;;;4933282;29;20493;-76
2022/06/28 07:14:30;;;;;;;9.20;1.20;;;16.80;99.90;;;;;;4935579;29;20031;-76
2022/06/28 07:16:56;;;;;;;4.20;0.57;;;16.60;99.90;;;;;;4929646;29;20040;-76
2022/06/28 07:19:22;;;;;;;6.43;0.73;;;16.60;99.90;;;;;;4933279;29;20031;-76
2022/06/28 07:21:47;;;;;;;4.72;1.00;;;16.60;99.90;;;;;;4926405;28;20043;-76
2022/06/28 07:24:13;;;;;;;6.95;0.82;;;16.80;99.90;;;;;;4927567;29;20126;-76
2022/06/28 07:26:39;;;;;;;6.10;0.85;;;17.10;99.90;;;;;;4931947;29;20058;-77
2022/06/28 07:29:05;;;;;;;5.20;0.80;;;17.30;99.90;;;;;;4934649;28;20035;-77
2022/06/28 07:31:31;;;;;;;5.50;0.80;;;17.80;99.90;;;;;;4931781;29;20404;-77
2022/06/28 07:33:59;;;;;;;4.55;0.70;;;18.60;99.90;;;;;;4926394;29;20024;-76
2022/06/28 07:36:25;;;;;;;3.47;0.70;;;22.00;99.90;;;;;;4932539;29;20113;-77
2022/06/28 07:38:54;;;;;;;9.27;1.15;;;25.60;93.40;;;;;;4925303;28;20143;-75
2022/06/28 07:41:20;;;;;;;4.63;1.02;;;25.00;79.30;;;;;;4937071;28;20042;-77
2022/06/28 07:43:46;;;;;;;5.78;1.00;;;25.70;74.50;;;;;;4932818;29;20075;-76
2022/06/28 07:46:11;;;;;;;5.30;0.75;;;27.80;64.70;;;;;;4934652;28;20070;-77
2022/06/28 07:48:37;;;;;;;2.15;0.30;;;29.10;54.90;;;;;;4928647;28;20103;-75
2022/06/28 07:53:47;;;;;;;3.17;0.60;;;30.20;45.90;;;;;;4925834;29;20625;-77
2022/06/28 07:56:12;;;;;;;2.75;0.70;;;31.70;43.30;;;;;;4937012;28;20058;-77
2022/06/28 07:58:40;;;;;;;3.72;0.88;;;33.60;40.80;;;;;;4936384;29;20038;-77
2022/06/28 08:01:07;;;;;;;5.55;0.90;;;34.80;36.20;;;;;;4936802;28;20035;-76
2022/06/28 08:03:33;;;;;;;2.63;0.60;;;35.90;34.30;;;;;;4936830;29;20039;-76
2022/06/28 08:05:59;;;;;;;3.92;0.57;;;37.50;33.80;;;;;;4931693;29;20031;-75
2022/06/28 08:08:24;;;;;;;5.22;0.88;;;38.00;31.90;;;;;;4930433;29;20036;-78
2022/06/28 08:10:50;;;;;;;3.88;0.90;;;36.90;29.70;;;;;;4931339;29;20463;-78
2022/06/28 08:13:16;;;;;;;6.10;0.60;;;36.20;30.40;;;;;;4934684;28;20030;-76
2022/06/28 08:15:42;;;;;;;4.00;0.50;;;36.90;34.80;;;;;;4927243;28;20126;-77
2022/06/28 08:18:08;;;;;;;5.22;0.80;;;38.40;31.70;;;;;;4936443;28;20062;-77
2022/06/28 08:20:34;;;;;;;2.35;0.40;;;34.50;31.10;;;;;;4933539;28;20403;-74
2022/06/28 08:23:00;;;;;;;4.32;0.93;;;31.80;34.90;;;;;;4942774;28;20040;-75
2022/06/28 08:25:26;;;;;;;5.28;0.80;;;32.00;36.10;;;;;;4936432;29;20050;-76
2022/06/28 08:27:51;;;;;;;1.65;0.47;;;34.00;37.00;;;;;;4933696;28;20042;-77
2022/06/28 08:30:17;;;;;;;2.95;0.50;;;33.00;33.30;;;;;;4935223;28;20031;-76
2022/06/28 08:32:43;;;;;;;2.60;0.50;;;30.10;36.70;;;;;;4936244;28;20027;-77
2022/06/28 08:35:09;;;;;;;2.95;0.52;;;28.70;40.80;;;;;;4933854;28;20046;-76
2022/06/28 08:37:35;;;;;;;3.80;0.60;;;27.50;41.50;;;;;;4932861;29;20324;-76
2022/06/28 08:40:00;;;;;;;3.65;0.47;;;29.80;41.50;;;;;;4938447;29;20499;-76
2022/06/28 08:42:30;;;;;;;3.15;0.68;;;32.20;38.80;;;;;;4936468;28;20493;-77
2022/06/28 08:45:00;;;;;;;4.88;0.93;;;34.40;36.10;;;;;;4937284;29;20149;-79
2022/06/28 08:47:33;;;;;;;4.20;1.10;;;36.00;36.00;;;;;;4934691;29;20067;-77
2022/06/28 08:50:05;;;;;;;2.53;0.70;;;36.90;34.20;;;;;;4942699;28;20043;-77
2022/06/28 08:52:35;;;;;;;3.25;0.45;;;36.60;30.40;;;;;;4950406;28;20082;-77
2022/06/28 08:55:01;;;;;;;2.10;0.60;;;37.10;33.80;;;;;;4944369;29;20027;-75
2022/06/28 08:57:30;;;;;;;2.25;0.43;;;36.90;30.00;;;;;;4937931;28;20415;-75
2022/06/28 08:59:57;;;;;;;2.90;0.47;;;37.80;32.10;;;;;;4941833;28;20038;-75
2022/06/28 09:02:23;;;;;;;4.13;0.80;;;37.80;31.70;;;;;;4936316;28;20042;-75
2022/06/28 09:04:53;;;;;;;3.03;0.60;;;34.40;31.40;;;;;;4941049;28;20042;-76
2022/06/28 09:07:19;;;;;;;2.97;0.68;;;31.50;36.00;;;;;;4939616;28;20461;-74
2022/06/28 09:09:46;;;;;;;3.50;0.60;;;30.30;40.00;;;;;;4938493;28;20023;-75
2022/06/28 09:12:12;;;;;;;4.55;0.50;;;31.20;38.40;;;;;;4941820;28;20030;-73
2022/06/28 09:14:39;;;;;;;4.00;0.60;;;31.40;36.50;;;;;;4944061;28;20027;-75
2022/06/28 09:17:28;;;;;;;2.47;0.70;;;29.30;37.70;;;;;;4930726;28;20070;-75
2022/06/28 09:20:06;;;;;;;6.72;1.27;;;27.40;43.10;;;;;;4938499;23;20087;-76
2022/06/28 09:22:43;;;;;;;6.53;0.90;;;25.60;46.60;;;;;;4940232;29;20109;-75
2022/06/28 09:25:11;;;;;;;3.97;0.75;;;25.80;52.10;;;;;;4936985;28;20913;-78
2022/06/28 09:27:39;;;;;;;7.43;0.75;;;26.50;52.20;;;;;;4938347;28;20037;-76
2022/06/28 09:30:13;;;;;;;3.78;0.55;;;26.80;50.90;;;;;;4937987;28;20024;-78
2022/06/28 09:32:40;;;;;;;6.53;1.20;;;27.50;49.30;;;;;;4937671;29;20771;-78
2022/06/28 09:35:11;;;;;;;3.88;0.82;;;27.70;46.80;;;;;;4928994;28;20916;-76
2022/06/28 09:37:53;;;;;;;3.65;0.50;;;27.90;47.70;;;;;;4930111;28;20054;-77
2022/06/28 09:40:33;;;;;;;2.65;0.30;;;29.40;45.00;;;;;;4579007;28;10000453;-78
2022/06/28 09:43:07;;;;;;;3.03;0.38;;;29.10;43.10;;;;;;4934412;28;20114;-77
2022/06/28 09:45:34;;;;;;;3.30;0.40;;;28.10;44.20;;;;;;4930063;28;20125;-76
2022/06/28 09:48:00;;;;;;;3.15;0.45;;;28.90;45.70;;;;;;4930794;28;20055;-80
2022/06/28 09:50:25;;;;;;;3.10;0.40;;;29.00;41.50;;;;;;4938058;28;20843;-76
2022/06/28 09:52:52;;;;;;;4.20;0.52;;;29.20;40.80;;;;;;4941157;28;20111;-77
2022/06/28 09:55:18;;;;;;;1.73;0.40;;;28.20;41.60;;;;;;4937918;28;20461;-75
2022/06/28 09:57:47;;;;;;;3.35;0.80;;;26.60;43.90;;;;;;4931360;28;20089;-77
2022/06/28 10:00:16;;;;;;;2.38;0.60;;;25.10;47.50;;;;;;4927812;28;20751;-80
2022/06/28 10:02:42;;;;;;;1.67;0.50;;;24.20;50.50;;;;;;4924850;28;20110;-78
2022/06/28 10:05:12;;;;;;;4.32;0.57;;;23.90;59.40;;;;;;4926956;29;20051;-77
2022/06/28 10:07:38;;;;;;;4.63;0.60;;;24.50;56.50;;;;;;4925263;28;20035;-75
2022/06/28 10:10:06;;;;;;;3.05;0.57;;;24.10;56.10;;;;;;4927475;28;20075;-77
2022/06/28 10:15:25;;;;;;;3.38;0.40;;;26.20;55.30;;;;;;4926400;28;20134;-75
2022/06/28 10:17:55;;;;;;;4.72;0.60;;;26.40;52.30;;;;;;4928167;29;20023;-75
2022/06/28 10:20:23;;;;;;;2.55;0.47;;;27.00;48.60;;;;;;4924320;29;20062;-75
2022/06/28 10:22:49;;;;;;;4.43;0.75;;;27.00;45.40;;;;;;4929008;28;20058;-75
2022/06/28 10:25:22;;;;;;;3.25;0.60;;;27.10;45.60;;;;;;4927382;29;20594;-76
2022/06/28 10:27:50;;;;;;;0.80;0.20;;;27.80;40.10;;;;;;4937242;28;20537;-79
2022/06/28 10:30:29;;;;;;;1.88;0.30;;;29.20;42.40;;;;;;4935159;28;20043;-78
2022/06/28 10:33:09;;;;;;;2.63;0.55;;;30.10;42.40;;;;;;4935122;29;20031;-81
2022/06/28 10:35:34;;;;;;;3.97;0.63;;;30.50;37.00;;;;;;4929315;28;20039;-78
2022/06/28 10:38:18;;;;;;;3.17;0.88;;;29.60;36.90;;;;;;4936018;28;20093;-74
2022/06/28 10:40:50;;;;;;;2.95;0.90;;;28.20;38.00;;;;;;4936003;28;20031;-75
2022/06/28 10:43:27;;;;;;;1.67;0.30;;;26.80;40.20;;;;;;4934282;29;20035;-77
2022/06/28 10:46:07;;;;;;;3.38;0.50;;;26.30;43.60;;;;;;4935625;28;20094;-75
2022/06/28 10:48:56;;;;;;;3.28;0.60;;;26.30;45.50;;;;;;4938172;29;20115;-78
2022/06/28 10:51:22;;;;;;;2.78;0.40;;;27.90;47.20;;;;;;4934379;28;20067;-77
2022/06/28 10:53:57;;;;;;;3.45;0.52;;;28.70;38.50;;;;;;4934873;29;20042;-74
2022/06/28 10:56:24;;;;;;;1.10;0.20;;;28.90;43.20;;;;;;4927572;29;20036;-75
2022/06/28 10:58:53;;;;;;;4.28;0.57;;;29.50;41.90;;;;;;4931324;29;20184;-76
2022/06/28 11:01:39;;;;;;;0.70;0.25;;;29.30;44.30;;;;;;4930230;29;20039;-75
2022/06/28 11:04:25;;;;;;;3.15;0.43;;;29.30;41.00;;;;;;4941291;29;20470;-74
2022/06/28 11:06:55;;;;;;;1.08;0.30;;;29.00;39.70;;;;;;4932090;29;20029;-74
2022/06/28 11:09:58;;;;;;;2.77;0.30;;;29.20;46.40;;;;;;4936120;29;20038;-77
2022/06/28 11:12:36;;;;;;;3.30;0.60;;;29.60;38.90;;;;;;4933283;29;20027;-76
2022/06/28 11:15:35;;;;;;;4.30;0.50;;;28.50;38.90;;;;;;4933948;29;20034;-74
2022/06/28 11:18:02;;;;;;;2.47;0.30;;;27.80;41.90;;;;;;4926407;28;20054;-75
2022/06/28 11:20:30;;;;;;;2.60;0.77;;;28.00;45.80;;;;;;4928343;29;20043;-74
2022/06/28 11:22:56;;;;;;;1.60;0.28;;;28.40;46.60;;;;;;4925437;28;20035;-72
2022/06/28 11:25:23;;;;;;;4.43;0.57;;;28.80;49.00;;;;;;4929014;29;20503;-71
2022/06/28 11:27:57;;;;;;;2.08;0.50;;;29.30;45.80;;;;;;4930898;29;20059;-72
2022/06/28 11:30:27;;;;;;;3.72;0.55;;;29.50;47.00;;;;;;4937855;28;20030;-72
2022/06/28 11:32:55;;;;;;;2.88;0.50;;;29.40;45.40;;;;;;4929097;28;20035;-77
2022/06/28 11:35:27;;;;;;;1.85;0.60;;;28.80;38.70;;;;;;4942784;28;20067;-77
2022/06/28 11:37:58;;;;;;;1.67;0.60;;;27.60;41.30;;;;;;4933806;29;20035;-73
2022/06/28 11:40:29;;;;;;;3.03;0.80;;;27.00;45.40;;;;;;4930163;28;20046;-73
2022/06/28 11:43:03;;;;;;;1.50;0.68;;;26.60;52.00;;;;;;4933432;29;20107;-74
2022/06/28 11:45:32;;;;;;;1.90;0.50;;;26.50;48.10;;;;;;4935421;28;20118;-77
2022/06/28 11:48:10;;;;;;;0.70;0.32;;;26.20;50.20;;;;;;4931776;28;20031;-73
2022/06/28 11:50:49;;;;;;;2.63;0.60;;;26.20;45.10;;;;;;4925391;29;20047;-73
2022/06/28 11:53:16;;;;;;;1.92;0.88;;;25.60;45.40;;;;;;4932794;28;20039;-74
2022/06/28 11:55:46;;;;;;;1.67;0.63;;;25.10;52.90;;;;;;4930445;28;20051;-76
2022/06/28 11:58:19;;;;;;;2.45;0.60;;;24.90;60.40;;;;;;4937498;29;20027;-75
2022/06/28 12:01:03;;;;;;;4.97;1.10;;;25.10;58.20;;;;;;4937722;28;20024;-74
2022/06/28 12:03:30;;;;;;;1.60;0.80;;;25.20;58.30;;;;;;4937430;28;20063;-75
2022/06/28 12:05:57;;;;;;;2.05;0.80;;;25.70;53.60;;;;;;4938549;29;20039;-73
2022/06/28 12:08:43;;;;;;;1.95;1.00;;;25.40;54.70;;;;;;4938572;29;20038;-76
2022/06/28 12:11:28;;;;;;;2.53;1.20;;;24.70;59.10;;;;;;4934774;28;20123;-74
2022/06/28 12:14:12;;;;;;;2.95;0.90;;;24.20;65.60;;;;;;4942046;29;20061;-75
2022/06/28 12:17:00;;;;;;;3.40;1.52;;;24.30;65.00;;;;;;4945740;29;20178;-76
2022/06/28 12:19:38;;;;;;;4.85;1.92;;;24.60;66.20;;;;;;4941395;29;20126;-74
2022/06/28 12:22:11;;;;;;;3.28;1.10;;;24.70;81.60;;;;;;4943585;29;20042;-74
2022/06/28 12:24:43;;;;;;;2.42;1.10;;;24.00;64.40;;;;;;4934077;28;20043;-75
2022/06/28 12:27:10;;;;;;;4.63;1.63;;;23.60;71.80;;;;;;4934403;28;20023;-74
2022/06/28 12:29:36;;;;;;;3.03;1.33;;;23.90;95.60;;;;;;4933939;28;20350;-74
2022/06/28 12:32:03;;;;;;;4.40;1.77;;;24.20;69.10;;;;;;4934765;28;20031;-74
2022/06/28 12:34:29;;;;;;;1.70;1.10;;;24.50;69.90;;;;;;4946260;28;20031;-73
2022/06/28 12:36:55;;;;;;;4.18;1.45;;;24.60;73.30;;;;;;4945906;28;20113;-73
2022/06/28 12:39:27;;;;;;;3.98;0.82;;;24.70;72.20;;;;;;4824677;28;10000749;-73
2022/06/28 12:41:53;;;;;;;1.70;0.90;;;24.60;66.00;;;;;;4942630;28;20748;-73
2022/06/28 12:44:18;;;;;;;3.05;0.77;;;24.80;73.60;;;;;;4940075;28;20043;-72
2022/06/28 12:46:45;;;;;;;3.85;1.08;;;24.50;58.70;;;;;;4928925;28;20448;-75
2022/06/28 12:49:11;;;;;;;1.30;0.47;;;24.40;67.10;;;;;;4933234;28;20095;-74
2022/06/28 12:51:37;;;;;;;3.38;0.70;;;23.70;66.40;;;;;;4931201;28;20062;-76
2022/06/28 12:54:03;;;;;;;5.03;0.93;;;23.50;63.10;;;;;;4931263;29;20131;-74
2022/06/28 12:56:29;;;;;;;2.97;0.93;;;23.70;68.00;;;;;;4938768;28;20031;-75
2022/06/28 12:58:57;;;;;;;0.82;0.47;;;23.80;66.20;;;;;;4938573;29;20035;-77
2022/06/28 13:01:23;;;;;;;3.22;0.50;;;23.70;69.60;;;;;;4942023;28;20031;-73
2022/06/28 13:03:49;;;;;;;1.38;0.52;;;23.60;68.90;;;;;;4942204;28;20482;-74
2022/06/28 13:06:14;;;;;;;3.15;0.70;;;23.40;66.90;;;;;;4937844;29;20028;-74